sensor_id;sensor_type;location;lat;lon;timestamp;temperature;humidity
69082;DHT22;56184;51.986;5.760;2022-12-18T00:00:08;-1.90;94.00
69082;DHT22;56184;51.986;5.760;2022-12-18T00:02:46;-2.00;94.40
69082;DHT22;56184;51.986;5.760;2022-12-18T00:05:18;-2.00;94.40
69082;DHT22;56184;51.986;5.760;2022-12-18T00:07:53;-2.10;94.50
69082;DHT22;56184;51.986;5.760;2022-12-18T00:10:19;-2.10;94.60
69082;DHT22;56184;51.986;5.760;2022-12-18T00:12:48;-2.20;94.90
69082;DHT22;56184;51.986;5.760;2022-12-18T00:15:13;-2.20;94.40
69082;DHT22;56184;51.986;5.760;2022-12-18T00:17:39;-2.20;94.50
69082;DHT22;56184;51.986;5.760;2022-12-18T00:20:20;-2.30;94.20
69082;DHT22;56184;51.986;5.760;2022-12-18T00:23:00;-2.40;94.20
69082;DHT22;56184;51.986;5.760;2022-12-18T00:25:38;-2.40;94.30
69082;DHT22;56184;51.986;5.760;2022-12-18T00:28:13;-2.50;94.50
69082;DHT22;56184;51.986;5.760;2022-12-18T00:30:41;-2.60;94.40
69082;DHT22;56184;51.986;5.760;2022-12-18T00:33:09;-2.60;94.40
69082;DHT22;56184;51.986;5.760;2022-12-18T00:35:35;-2.60;94.50
69082;DHT22;56184;51.986;5.760;2022-12-18T00:38:10;-2.70;94.40
69082;DHT22;56184;51.986;5.760;2022-12-18T00:40:55;-2.80;94.30
69082;DHT22;56184;51.986;5.760;2022-12-18T00:43:37;-2.80;94.70
69082;DHT22;56184;51.986;5.760;2022-12-18T00:46:23;-2.90;94.90
69082;DHT22;56184;51.986;5.760;2022-12-18T00:49:02;-2.90;95.20
69082;DHT22;56184;51.986;5.760;2022-12-18T00:51:34;-3.00;95.30
69082;DHT22;56184;51.986;5.760;2022-12-18T00:54:00;-3.00;95.10
69082;DHT22;56184;51.986;5.760;2022-12-18T00:56:45;-3.10;95.10
69082;DHT22;56184;51.986;5.760;2022-12-18T00:59:10;-3.10;95.20
69082;DHT22;56184;51.986;5.760;2022-12-18T01:01:45;-3.10;95.30
69082;DHT22;56184;51.986;5.760;2022-12-18T01:04:17;-3.20;94.70
69082;DHT22;56184;51.986;5.760;2022-12-18T01:06:42;-3.20;95.00
69082;DHT22;56184;51.986;5.760;2022-12-18T01:09:17;-3.20;95.10
69082;DHT22;56184;51.986;5.760;2022-12-18T01:11:46;-3.30;95.20
69082;DHT22;56184;51.986;5.760;2022-12-18T01:14:29;-3.30;95.10
69082;DHT22;56184;51.986;5.760;2022-12-18T01:16:58;-3.30;95.20
69082;DHT22;56184;51.986;5.760;2022-12-18T01:19:46;-3.30;95.40
69082;DHT22;56184;51.986;5.760;2022-12-18T01:22:21;-3.40;95.50
69082;DHT22;56184;51.986;5.760;2022-12-18T01:24:46;-3.40;95.70
69082;DHT22;56184;51.986;5.760;2022-12-18T01:27:21;-3.40;95.50
69082;DHT22;56184;51.986;5.760;2022-12-18T01:29:48;-3.50;95.30
69082;DHT22;56184;51.986;5.760;2022-12-18T01:32:14;-3.50;95.30
69082;DHT22;56184;51.986;5.760;2022-12-18T01:34:40;-3.50;95.50
69082;DHT22;56184;51.986;5.760;2022-12-18T01:37:17;-3.50;95.80
69082;DHT22;56184;51.986;5.760;2022-12-18T01:39:50;-3.50;95.80
69082;DHT22;56184;51.986;5.760;2022-12-18T01:42:19;-3.60;95.80
69082;DHT22;56184;51.986;5.760;2022-12-18T01:47:58;-3.70;95.70
69082;DHT22;56184;51.986;5.760;2022-12-18T01:51:13;-3.60;95.90
69082;DHT22;56184;51.986;5.760;2022-12-18T01:54:12;-3.70;95.80
69082;DHT22;56184;51.986;5.760;2022-12-18T01:56:41;-3.70;95.70
69082;DHT22;56184;51.986;5.760;2022-12-18T02:01:48;-3.70;95.20
69082;DHT22;56184;51.986;5.760;2022-12-18T02:04:31;-3.80;95.50
69082;DHT22;56184;51.986;5.760;2022-12-18T02:13:14;-3.80;95.90
69082;DHT22;56184;51.986;5.760;2022-12-18T02:20:06;-3.80;95.90
69082;DHT22;56184;51.986;5.760;2022-12-18T02:26:24;-3.90;95.80
69082;DHT22;56184;51.986;5.760;2022-12-18T02:29:13;-3.90;95.70
69082;DHT22;56184;51.986;5.760;2022-12-18T02:32:12;-4.00;95.50
69082;DHT22;56184;51.986;5.760;2022-12-18T02:34:41;-4.00;95.50
69082;DHT22;56184;51.986;5.760;2022-12-18T02:37:37;-4.00;95.60
69082;DHT22;56184;51.986;5.760;2022-12-18T02:40:21;-4.00;95.50
69082;DHT22;56184;51.986;5.760;2022-12-18T02:42:48;-4.00;95.40
69082;DHT22;56184;51.986;5.760;2022-12-18T02:45:14;-4.10;95.70
69082;DHT22;56184;51.986;5.760;2022-12-18T02:47:43;-4.10;95.80
69082;DHT22;56184;51.986;5.760;2022-12-18T02:56:56;-4.10;95.60
69082;DHT22;56184;51.986;5.760;2022-12-18T02:59:37;-4.20;95.70
69082;DHT22;56184;51.986;5.760;2022-12-18T03:06:00;-4.00;99.90
69082;DHT22;56184;51.986;5.760;2022-12-18T03:08:45;-4.30;95.40
69082;DHT22;56184;51.986;5.760;2022-12-18T03:11:33;-4.30;95.30
69082;DHT22;56184;51.986;5.760;2022-12-18T03:14:19;-4.30;95.60
69082;DHT22;56184;51.986;5.760;2022-12-18T03:17:16;-4.30;95.60
69082;DHT22;56184;51.986;5.760;2022-12-18T03:23:05;-4.40;95.40
69082;DHT22;56184;51.986;5.760;2022-12-18T03:25:33;-4.40;95.50
69082;DHT22;56184;51.986;5.760;2022-12-18T03:28:13;-4.40;95.50
69082;DHT22;56184;51.986;5.760;2022-12-18T03:30:42;-4.40;94.80
69082;DHT22;56184;51.986;5.760;2022-12-18T03:33:13;-4.50;95.10
69082;DHT22;56184;51.986;5.760;2022-12-18T03:35:42;-4.50;95.40
69082;DHT22;56184;51.986;5.760;2022-12-18T03:38:09;-4.50;95.40
69082;DHT22;56184;51.986;5.760;2022-12-18T03:40:44;-4.50;95.40
69082;DHT22;56184;51.986;5.760;2022-12-18T03:46:37;-4.50;95.40
69082;DHT22;56184;51.986;5.760;2022-12-18T03:49:12;-4.50;95.40
69082;DHT22;56184;51.986;5.760;2022-12-18T03:54:58;-4.60;95.40
69082;DHT22;56184;51.986;5.760;2022-12-18T03:57:27;-4.60;95.50
69082;DHT22;56184;51.986;5.760;2022-12-18T04:00:18;-4.60;95.50
69082;DHT22;56184;51.986;5.760;2022-12-18T04:02:52;-4.60;95.60
69082;DHT22;56184;51.986;5.760;2022-12-18T04:05:27;-4.60;95.60
69082;DHT22;56184;51.986;5.760;2022-12-18T04:07:55;-4.50;95.90
69082;DHT22;56184;51.986;5.760;2022-12-18T04:10:22;-4.40;95.50
69082;DHT22;56184;51.986;5.760;2022-12-18T04:12:59;-4.40;95.20
69082;DHT22;56184;51.986;5.760;2022-12-18T04:15:34;-4.50;95.30
69082;DHT22;56184;51.986;5.760;2022-12-18T04:18:01;-4.40;95.40
69082;DHT22;56184;51.986;5.760;2022-12-18T04:20:27;-4.40;95.30
69082;DHT22;56184;51.986;5.760;2022-12-18T04:22:53;-4.40;95.30
69082;DHT22;56184;51.986;5.760;2022-12-18T04:25:30;-4.40;95.50
69082;DHT22;56184;51.986;5.760;2022-12-18T04:28:02;-4.50;95.60
69082;DHT22;56184;51.986;5.760;2022-12-18T04:30:28;-4.50;96.00
69082;DHT22;56184;51.986;5.760;2022-12-18T04:32:56;-4.50;96.00
69082;DHT22;56184;51.986;5.760;2022-12-18T04:35:22;-4.40;96.10
69082;DHT22;56184;51.986;5.760;2022-12-18T04:37:59;-4.50;96.10
69082;DHT22;56184;51.986;5.760;2022-12-18T04:40:38;-4.40;96.20
69082;DHT22;56184;51.986;5.760;2022-12-18T04:43:10;-4.40;96.10
69082;DHT22;56184;51.986;5.760;2022-12-18T04:45:36;-4.40;96.10
69082;DHT22;56184;51.986;5.760;2022-12-18T04:48:24;-4.50;96.10
69082;DHT22;56184;51.986;5.760;2022-12-18T04:50:50;-4.50;96.20
69082;DHT22;56184;51.986;5.760;2022-12-18T04:53:19;-4.50;96.20
69082;DHT22;56184;51.986;5.760;2022-12-18T04:59:47;-4.50;96.10
69082;DHT22;56184;51.986;5.760;2022-12-18T05:02:19;-4.40;96.10
69082;DHT22;56184;51.986;5.760;2022-12-18T05:04:59;-4.40;96.20
69082;DHT22;56184;51.986;5.760;2022-12-18T05:07:25;-4.40;96.30
69082;DHT22;56184;51.986;5.760;2022-12-18T05:09:54;-4.50;96.20
69082;DHT22;56184;51.986;5.760;2022-12-18T05:12:25;-4.50;96.20
69082;DHT22;56184;51.986;5.760;2022-12-18T05:15:22;-4.50;96.20
69082;DHT22;56184;51.986;5.760;2022-12-18T05:18:00;-4.50;96.10
69082;DHT22;56184;51.986;5.760;2022-12-18T05:20:26;-4.50;96.20
69082;DHT22;56184;51.986;5.760;2022-12-18T05:23:10;-4.50;96.30
69082;DHT22;56184;51.986;5.760;2022-12-18T05:28:25;-4.40;96.50
69082;DHT22;56184;51.986;5.760;2022-12-18T05:33:57;-4.40;96.40
69082;DHT22;56184;51.986;5.760;2022-12-18T05:36:26;-4.40;96.10
69082;DHT22;56184;51.986;5.760;2022-12-18T05:38:52;-4.40;96.20
69082;DHT22;56184;51.986;5.760;2022-12-18T05:41:23;-4.40;95.90
69082;DHT22;56184;51.986;5.760;2022-12-18T05:43:52;-4.50;95.80
69082;DHT22;56184;51.986;5.760;2022-12-18T05:46:29;-4.50;95.80
69082;DHT22;56184;51.986;5.760;2022-12-18T05:48:55;-4.50;95.80
69082;DHT22;56184;51.986;5.760;2022-12-18T05:51:42;-4.40;96.00
69082;DHT22;56184;51.986;5.760;2022-12-18T05:54:07;-4.50;96.00
69082;DHT22;56184;51.986;5.760;2022-12-18T05:56:33;-4.50;96.00
69082;DHT22;56184;51.986;5.760;2022-12-18T05:59:05;-4.50;96.00
69082;DHT22;56184;51.986;5.760;2022-12-18T06:01:33;-4.60;95.90
69082;DHT22;56184;51.986;5.760;2022-12-18T06:04:11;-4.50;95.90
69082;DHT22;56184;51.986;5.760;2022-12-18T06:06:43;-4.60;95.90
69082;DHT22;56184;51.986;5.760;2022-12-18T06:09:08;-4.60;96.10
69082;DHT22;56184;51.986;5.760;2022-12-18T06:11:46;-4.60;96.30
69082;DHT22;56184;51.986;5.760;2022-12-18T06:14:11;-4.60;96.20
69082;DHT22;56184;51.986;5.760;2022-12-18T06:16:39;-4.60;96.10
69082;DHT22;56184;51.986;5.760;2022-12-18T06:19:05;-4.60;96.00
69082;DHT22;56184;51.986;5.760;2022-12-18T06:21:34;-4.60;95.90
69082;DHT22;56184;51.986;5.760;2022-12-18T06:24:02;-4.60;95.90
69082;DHT22;56184;51.986;5.760;2022-12-18T06:26:31;-4.60;95.90
69082;DHT22;56184;51.986;5.760;2022-12-18T06:28:56;-4.60;96.10
69082;DHT22;56184;51.986;5.760;2022-12-18T06:31:25;-4.60;96.50
69082;DHT22;56184;51.986;5.760;2022-12-18T06:33:57;-4.50;96.00
69082;DHT22;56184;51.986;5.760;2022-12-18T06:36:26;-4.60;96.10
69082;DHT22;56184;51.986;5.760;2022-12-18T06:38:51;-4.60;96.10
69082;DHT22;56184;51.986;5.760;2022-12-18T06:41:19;-4.60;96.20
69082;DHT22;56184;51.986;5.760;2022-12-18T06:44:04;-4.60;96.20
69082;DHT22;56184;51.986;5.760;2022-12-18T06:46:29;-4.60;96.10
69082;DHT22;56184;51.986;5.760;2022-12-18T06:48:55;-4.50;96.30
69082;DHT22;56184;51.986;5.760;2022-12-18T06:51:33;-4.50;96.20
69082;DHT22;56184;51.986;5.760;2022-12-18T06:53:59;-4.40;96.30
69082;DHT22;56184;51.986;5.760;2022-12-18T06:56:25;-4.40;96.20
69082;DHT22;56184;51.986;5.760;2022-12-18T06:58:51;-4.30;96.10
69082;DHT22;56184;51.986;5.760;2022-12-18T07:01:16;-4.20;96.00
69082;DHT22;56184;51.986;5.760;2022-12-18T07:03:42;-4.20;95.80
69082;DHT22;56184;51.986;5.760;2022-12-18T07:06:19;-4.20;96.10
69082;DHT22;56184;51.986;5.760;2022-12-18T07:08:46;-4.20;96.30
69082;DHT22;56184;51.986;5.760;2022-12-18T07:11:33;-4.00;96.40
69082;DHT22;56184;51.986;5.760;2022-12-18T07:14:02;-4.00;96.20
69082;DHT22;56184;51.986;5.760;2022-12-18T07:16:39;-4.00;96.30
69082;DHT22;56184;51.986;5.760;2022-12-18T07:19:08;-4.00;96.30
69082;DHT22;56184;51.986;5.760;2022-12-18T07:21:34;-3.90;96.20
69082;DHT22;56184;51.986;5.760;2022-12-18T07:24:03;-3.90;96.40
69082;DHT22;56184;51.986;5.760;2022-12-18T07:26:29;-3.80;96.10
69082;DHT22;56184;51.986;5.760;2022-12-18T07:28:55;-3.90;96.00
69082;DHT22;56184;51.986;5.760;2022-12-18T07:31:28;-3.80;95.90
69082;DHT22;56184;51.986;5.760;2022-12-18T07:34:13;-3.90;96.00
69082;DHT22;56184;51.986;5.760;2022-12-18T07:36:40;-3.90;96.00
69082;DHT22;56184;51.986;5.760;2022-12-18T07:39:06;-3.80;95.70
69082;DHT22;56184;51.986;5.760;2022-12-18T07:41:35;-3.80;95.70
69082;DHT22;56184;51.986;5.760;2022-12-18T07:44:03;-3.70;95.50
69082;DHT22;56184;51.986;5.760;2022-12-18T07:46:43;-3.80;95.90
69082;DHT22;56184;51.986;5.760;2022-12-18T07:49:12;-3.70;95.80
69082;DHT22;56184;51.986;5.760;2022-12-18T07:51:43;-3.70;95.60
69082;DHT22;56184;51.986;5.760;2022-12-18T07:54:14;-3.80;95.70
69082;DHT22;56184;51.986;5.760;2022-12-18T07:56:48;-3.60;95.90
69082;DHT22;56184;51.986;5.760;2022-12-18T07:59:19;-3.60;95.40
69082;DHT22;56184;51.986;5.760;2022-12-18T08:01:57;-3.50;95.40
69082;DHT22;56184;51.986;5.760;2022-12-18T08:04:29;-3.50;95.70
69082;DHT22;56184;51.986;5.760;2022-12-18T08:07:00;-3.60;95.90
69082;DHT22;56184;51.986;5.760;2022-12-18T08:09:29;-3.40;95.40
69082;DHT22;56184;51.986;5.760;2022-12-18T08:12:09;-3.40;95.40
69082;DHT22;56184;51.986;5.760;2022-12-18T08:14:50;-3.40;95.50
69082;DHT22;56184;51.986;5.760;2022-12-18T08:17:19;-3.30;95.30
69082;DHT22;56184;51.986;5.760;2022-12-18T08:20:00;-3.20;95.10
69082;DHT22;56184;51.986;5.760;2022-12-18T08:22:38;-3.10;95.10
69082;DHT22;56184;51.986;5.760;2022-12-18T08:25:16;-3.10;94.80
69082;DHT22;56184;51.986;5.760;2022-12-18T08:28:10;-3.10;95.00
69082;DHT22;56184;51.986;5.760;2022-12-18T08:30:54;-3.00;95.10
69082;DHT22;56184;51.986;5.760;2022-12-18T08:33:23;-2.90;95.50
69082;DHT22;56184;51.986;5.760;2022-12-18T08:35:52;-2.80;95.00
69082;DHT22;56184;51.986;5.760;2022-12-18T08:38:18;-2.80;95.20
69082;DHT22;56184;51.986;5.760;2022-12-18T08:40:47;-2.80;95.20
69082;DHT22;56184;51.986;5.760;2022-12-18T08:43:18;-2.70;94.90
69082;DHT22;56184;51.986;5.760;2022-12-18T08:46:20;-2.70;95.00
69082;DHT22;56184;51.986;5.760;2022-12-18T08:49:07;-2.70;94.90
69082;DHT22;56184;51.986;5.760;2022-12-18T08:51:54;-2.50;94.60
69082;DHT22;56184;51.986;5.760;2022-12-18T08:54:20;-2.50;94.60
69082;DHT22;56184;51.986;5.760;2022-12-18T08:56:52;-2.50;95.20
69082;DHT22;56184;51.986;5.760;2022-12-18T09:02:28;-2.40;94.50
69082;DHT22;56184;51.986;5.760;2022-12-18T09:05:02;-2.30;95.20
69082;DHT22;56184;51.986;5.760;2022-12-18T09:07:28;-2.20;94.40
69082;DHT22;56184;51.986;5.760;2022-12-18T09:10:07;-2.10;94.10
69082;DHT22;56184;51.986;5.760;2022-12-18T09:12:53;-2.10;94.10
69082;DHT22;56184;51.986;5.760;2022-12-18T09:18:05;-1.90;94.30
69082;DHT22;56184;51.986;5.760;2022-12-18T09:20:32;-1.90;94.20
69082;DHT22;56184;51.986;5.760;2022-12-18T09:22:57;-1.80;94.00
69082;DHT22;56184;51.986;5.760;2022-12-18T09:25:23;-1.60;93.70
69082;DHT22;56184;51.986;5.760;2022-12-18T09:28:06;-1.60;93.50
69082;DHT22;56184;51.986;5.760;2022-12-18T09:30:37;-1.60;93.90
69082;DHT22;56184;51.986;5.760;2022-12-18T09:33:06;-1.50;93.70
69082;DHT22;56184;51.986;5.760;2022-12-18T09:35:42;-1.50;93.90
69082;DHT22;56184;51.986;5.760;2022-12-18T09:38:23;-1.40;93.50
69082;DHT22;56184;51.986;5.760;2022-12-18T09:40:52;-1.30;93.40
69082;DHT22;56184;51.986;5.760;2022-12-18T09:43:43;-1.30;93.40
69082;DHT22;56184;51.986;5.760;2022-12-18T09:46:17;-1.20;93.20
69082;DHT22;56184;51.986;5.760;2022-12-18T09:49:14;-1.10;94.20
69082;DHT22;56184;51.986;5.760;2022-12-18T09:52:00;-1.00;93.30
69082;DHT22;56184;51.986;5.760;2022-12-18T10:03:35;-0.60;92.60
69082;DHT22;56184;51.986;5.760;2022-12-18T10:09:36;-0.60;92.30
69082;DHT22;56184;51.986;5.760;2022-12-18T10:15:33;-0.40;92.70
69082;DHT22;56184;51.986;5.760;2022-12-18T10:21:00;-0.20;91.50
69082;DHT22;56184;51.986;5.760;2022-12-18T10:26:24;0.00;91.50
69082;DHT22;56184;51.986;5.760;2022-12-18T10:28:51;0.00;90.80
69082;DHT22;56184;51.986;5.760;2022-12-18T10:31:23;0.00;91.70
69082;DHT22;56184;51.986;5.760;2022-12-18T10:33:53;0.00;91.10
69082;DHT22;56184;51.986;5.760;2022-12-18T10:39:22;0.20;92.50
69082;DHT22;56184;51.986;5.760;2022-12-18T10:42:24;0.30;91.90
69082;DHT22;56184;51.986;5.760;2022-12-18T10:47:49;0.40;91.10
69082;DHT22;56184;51.986;5.760;2022-12-18T10:50:30;0.40;91.10
69082;DHT22;56184;51.986;5.760;2022-12-18T10:53:24;0.40;90.60
69082;DHT22;56184;51.986;5.760;2022-12-18T10:55:52;0.50;90.70
69082;DHT22;56184;51.986;5.760;2022-12-18T11:01:23;0.60;90.40
69082;DHT22;56184;51.986;5.760;2022-12-18T11:06:51;0.70;91.00
69082;DHT22;56184;51.986;5.760;2022-12-18T11:09:40;0.80;91.20
69082;DHT22;56184;51.986;5.760;2022-12-18T11:12:28;0.80;90.30
69082;DHT22;56184;51.986;5.760;2022-12-18T11:14:57;1.00;91.90
69082;DHT22;56184;51.986;5.760;2022-12-18T11:17:33;1.00;90.20
69082;DHT22;56184;51.986;5.760;2022-12-18T11:25:55;1.00;90.50
69082;DHT22;56184;51.986;5.760;2022-12-18T11:28:54;1.10;89.80
69082;DHT22;56184;51.986;5.760;2022-12-18T11:34:46;1.20;91.10
69082;DHT22;56184;51.986;5.760;2022-12-18T11:37:17;1.30;91.70
69082;DHT22;56184;51.986;5.760;2022-12-18T11:50:19;1.50;89.80
69082;DHT22;56184;51.986;5.760;2022-12-18T11:53:27;1.60;89.10
69082;DHT22;56184;51.986;5.760;2022-12-18T12:02:28;1.60;88.90
69082;DHT22;56184;51.986;5.760;2022-12-18T12:40:27;1.90;90.80
69082;DHT22;56184;51.986;5.760;2022-12-18T12:48:50;1.90;89.40
69082;DHT22;56184;51.986;5.760;2022-12-18T12:51:37;2.00;87.70
69082;DHT22;56184;51.986;5.760;2022-12-18T12:54:26;1.90;86.40
69082;DHT22;56184;51.986;5.760;2022-12-18T13:00:11;2.00;88.50
69082;DHT22;56184;51.986;5.760;2022-12-18T13:05:49;2.00;89.50
69082;DHT22;56184;51.986;5.760;2022-12-18T13:08:31;2.00;87.60
69082;DHT22;56184;51.986;5.760;2022-12-18T13:11:01;2.00;88.20
69082;DHT22;56184;51.986;5.760;2022-12-18T13:13:56;2.00;88.80
69082;DHT22;56184;51.986;5.760;2022-12-18T13:16:26;2.00;86.60
69082;DHT22;56184;51.986;5.760;2022-12-18T13:19:22;2.00;87.30
69082;DHT22;56184;51.986;5.760;2022-12-18T13:22:04;2.00;89.40
69082;DHT22;56184;51.986;5.760;2022-12-18T13:24:41;2.00;87.00
69082;DHT22;56184;51.986;5.760;2022-12-18T13:42:40;2.00;86.80
69082;DHT22;56184;51.986;5.760;2022-12-18T13:45:47;2.10;87.00
69082;DHT22;56184;51.986;5.760;2022-12-18T13:48:18;2.00;86.60
69082;DHT22;56184;51.986;5.760;2022-12-18T13:50:59;2.00;89.00
69082;DHT22;56184;51.986;5.760;2022-12-18T13:59:53;1.90;91.70
69082;DHT22;56184;51.986;5.760;2022-12-18T14:02:33;2.00;88.90
69082;DHT22;56184;51.986;5.760;2022-12-18T14:15:46;1.90;89.60
69082;DHT22;56184;51.986;5.760;2022-12-18T14:18:58;1.90;86.00
69082;DHT22;56184;51.986;5.760;2022-12-18T14:24:34;1.80;88.00
69082;DHT22;56184;51.986;5.760;2022-12-18T14:27:20;1.80;88.00
69082;DHT22;56184;51.986;5.760;2022-12-18T14:29:46;1.80;88.80
69082;DHT22;56184;51.986;5.760;2022-12-18T14:32:23;1.80;89.70
69082;DHT22;56184;51.986;5.760;2022-12-18T14:35:13;1.90;91.00
69082;DHT22;56184;51.986;5.760;2022-12-18T14:41:05;1.90;86.50
69082;DHT22;56184;51.986;5.760;2022-12-18T14:43:34;1.90;90.20
69082;DHT22;56184;51.986;5.760;2022-12-18T14:46:03;1.90;87.80
69082;DHT22;56184;51.986;5.760;2022-12-18T14:48:48;1.90;89.40
69082;DHT22;56184;51.986;5.760;2022-12-18T14:51:20;1.80;86.70
69082;DHT22;56184;51.986;5.760;2022-12-18T14:54:04;1.80;88.90
69082;DHT22;56184;51.986;5.760;2022-12-18T14:57:00;1.80;88.60
69082;DHT22;56184;51.986;5.760;2022-12-18T14:59:40;1.70;87.60
69082;DHT22;56184;51.986;5.760;2022-12-18T15:02:23;1.80;88.80
69082;DHT22;56184;51.986;5.760;2022-12-18T15:05:19;1.80;89.00
69082;DHT22;56184;51.986;5.760;2022-12-18T15:08:38;1.80;87.50
69082;DHT22;56184;51.986;5.760;2022-12-18T15:13:53;1.90;90.10
69082;DHT22;56184;51.986;5.760;2022-12-18T15:16:22;1.80;89.10
69082;DHT22;56184;51.986;5.760;2022-12-18T15:19:07;1.80;87.40
69082;DHT22;56184;51.986;5.760;2022-12-18T15:21:33;1.80;89.30
69082;DHT22;56184;51.986;5.760;2022-12-18T15:24:18;1.80;90.00
69082;DHT22;56184;51.986;5.760;2022-12-18T15:27:00;1.70;88.50
69082;DHT22;56184;51.986;5.760;2022-12-18T15:29:35;1.70;87.90
69082;DHT22;56184;51.986;5.760;2022-12-18T15:35:44;1.70;87.50
69082;DHT22;56184;51.986;5.760;2022-12-18T15:38:16;1.60;88.10
69082;DHT22;56184;51.986;5.760;2022-12-18T15:40:44;1.60;89.00
69082;DHT22;56184;51.986;5.760;2022-12-18T15:43:16;1.60;88.00
69082;DHT22;56184;51.986;5.760;2022-12-18T15:46:25;1.60;88.10
69082;DHT22;56184;51.986;5.760;2022-12-18T15:49:04;1.60;88.50
69082;DHT22;56184;51.986;5.760;2022-12-18T15:51:42;1.60;88.40
69082;DHT22;56184;51.986;5.760;2022-12-18T15:54:37;1.50;87.20
69082;DHT22;56184;51.986;5.760;2022-12-18T15:57:34;1.50;89.20
69082;DHT22;56184;51.986;5.760;2022-12-18T16:00:18;1.60;90.00
69082;DHT22;56184;51.986;5.760;2022-12-18T16:02:44;1.60;88.30
69082;DHT22;56184;51.986;5.760;2022-12-18T16:05:28;1.50;89.10
69082;DHT22;56184;51.986;5.760;2022-12-18T16:08:08;1.50;87.60
69082;DHT22;56184;51.986;5.760;2022-12-18T16:13:46;1.60;90.00
69082;DHT22;56184;51.986;5.760;2022-12-18T16:16:29;1.60;88.30
69082;DHT22;56184;51.986;5.760;2022-12-18T16:18:55;1.50;88.30
69082;DHT22;56184;51.986;5.760;2022-12-18T16:21:54;1.50;89.50
69082;DHT22;56184;51.986;5.760;2022-12-18T16:24:33;1.50;89.10
69082;DHT22;56184;51.986;5.760;2022-12-18T16:27:20;1.50;88.60
69082;DHT22;56184;51.986;5.760;2022-12-18T16:29:49;1.50;88.40
69082;DHT22;56184;51.986;5.760;2022-12-18T16:32:33;1.50;88.80
69082;DHT22;56184;51.986;5.760;2022-12-18T16:35:12;1.50;87.80
69082;DHT22;56184;51.986;5.760;2022-12-18T16:37:44;1.50;89.40
69082;DHT22;56184;51.986;5.760;2022-12-18T16:40:27;1.60;90.00
69082;DHT22;56184;51.986;5.760;2022-12-18T16:43:02;1.50;88.20
69082;DHT22;56184;51.986;5.760;2022-12-18T16:45:48;1.50;86.90
69082;DHT22;56184;51.986;5.760;2022-12-18T16:48:33;1.70;88.10
69082;DHT22;56184;51.986;5.760;2022-12-18T16:51:29;1.60;86.70
69082;DHT22;56184;51.986;5.760;2022-12-18T16:54:04;1.60;88.30
69082;DHT22;56184;51.986;5.760;2022-12-18T16:56:42;1.60;87.30
69082;DHT22;56184;51.986;5.760;2022-12-18T16:59:14;1.60;87.20
69082;DHT22;56184;51.986;5.760;2022-12-18T17:01:40;1.50;88.30
69082;DHT22;56184;51.986;5.760;2022-12-18T17:04:21;1.40;87.60
69082;DHT22;56184;51.986;5.760;2022-12-18T17:07:15;1.50;89.40
69082;DHT22;56184;51.986;5.760;2022-12-18T17:09:58;1.40;88.70
69082;DHT22;56184;51.986;5.760;2022-12-18T17:12:34;1.40;90.00
69082;DHT22;56184;51.986;5.760;2022-12-18T17:15:08;1.40;89.10
69082;DHT22;56184;51.986;5.760;2022-12-18T17:17:34;1.50;88.80
69082;DHT22;56184;51.986;5.760;2022-12-18T17:20:07;1.50;89.60
69082;DHT22;56184;51.986;5.760;2022-12-18T17:22:33;1.50;88.50
69082;DHT22;56184;51.986;5.760;2022-12-18T17:25:02;1.50;88.10
69082;DHT22;56184;51.986;5.760;2022-12-18T17:27:34;1.50;86.90
69082;DHT22;56184;51.986;5.760;2022-12-18T17:30:12;1.50;88.20
69082;DHT22;56184;51.986;5.760;2022-12-18T17:32:55;1.60;89.20
69082;DHT22;56184;51.986;5.760;2022-12-18T17:35:34;1.50;87.70
69082;DHT22;56184;51.986;5.760;2022-12-18T17:38:09;1.50;88.20
69082;DHT22;56184;51.986;5.760;2022-12-18T17:40:34;1.50;88.40
69082;DHT22;56184;51.986;5.760;2022-12-18T17:43:03;1.50;87.90
69082;DHT22;56184;51.986;5.760;2022-12-18T17:45:29;1.50;88.50
69082;DHT22;56184;51.986;5.760;2022-12-18T17:48:13;1.40;88.00
69082;DHT22;56184;51.986;5.760;2022-12-18T17:54:24;1.40;89.10
69082;DHT22;56184;51.986;5.760;2022-12-18T17:56:55;1.50;88.60
69082;DHT22;56184;51.986;5.760;2022-12-18T17:59:30;1.50;88.80
69082;DHT22;56184;51.986;5.760;2022-12-18T18:02:12;1.50;89.00
69082;DHT22;56184;51.986;5.760;2022-12-18T18:04:52;1.50;89.20
69082;DHT22;56184;51.986;5.760;2022-12-18T18:07:33;1.60;89.20
69082;DHT22;56184;51.986;5.760;2022-12-18T18:10:06;1.60;88.70
69082;DHT22;56184;51.986;5.760;2022-12-18T18:12:38;1.60;89.70
69082;DHT22;56184;51.986;5.760;2022-12-18T18:15:38;1.60;89.10
69082;DHT22;56184;51.986;5.760;2022-12-18T18:18:10;1.60;89.20
69082;DHT22;56184;51.986;5.760;2022-12-18T18:20:47;1.60;89.20
69082;DHT22;56184;51.986;5.760;2022-12-18T18:23:28;1.60;89.10
69082;DHT22;56184;51.986;5.760;2022-12-18T18:28:45;1.50;87.90
69082;DHT22;56184;51.986;5.760;2022-12-18T18:31:46;1.50;89.30
69082;DHT22;56184;51.986;5.760;2022-12-18T18:34:24;1.50;90.10
69082;DHT22;56184;51.986;5.760;2022-12-18T18:37:19;1.60;90.00
69082;DHT22;56184;51.986;5.760;2022-12-18T18:39:44;1.70;90.20
69082;DHT22;56184;51.986;5.760;2022-12-18T18:42:21;1.60;89.20
69082;DHT22;56184;51.986;5.760;2022-12-18T18:45:05;1.60;89.50
69082;DHT22;56184;51.986;5.760;2022-12-18T18:47:35;1.60;90.00
69082;DHT22;56184;51.986;5.760;2022-12-18T18:50:01;1.60;89.70
69082;DHT22;56184;51.986;5.760;2022-12-18T18:52:28;1.60;89.70
69082;DHT22;56184;51.986;5.760;2022-12-18T18:54:59;1.60;89.10
69082;DHT22;56184;51.986;5.760;2022-12-18T18:57:32;1.70;89.30
69082;DHT22;56184;51.986;5.760;2022-12-18T18:59:58;1.60;87.70
69082;DHT22;56184;51.986;5.760;2022-12-18T19:06:05;1.60;89.90
69082;DHT22;56184;51.986;5.760;2022-12-18T19:08:43;1.60;90.20
69082;DHT22;56184;51.986;5.760;2022-12-18T19:11:17;1.60;90.10
69082;DHT22;56184;51.986;5.760;2022-12-18T19:14:04;1.70;89.70
69082;DHT22;56184;51.986;5.760;2022-12-18T19:16:36;1.70;89.00
69082;DHT22;56184;51.986;5.760;2022-12-18T19:19:03;1.70;89.60
69082;DHT22;56184;51.986;5.760;2022-12-18T19:21:33;1.60;90.00
69082;DHT22;56184;51.986;5.760;2022-12-18T19:27:37;1.60;89.40
69082;DHT22;56184;51.986;5.760;2022-12-18T19:30:04;1.70;89.50
69082;DHT22;56184;51.986;5.760;2022-12-18T19:36:26;1.70;90.00
69082;DHT22;56184;51.986;5.760;2022-12-18T19:39:15;1.70;89.50
69082;DHT22;56184;51.986;5.760;2022-12-18T19:41:44;1.60;89.20
69082;DHT22;56184;51.986;5.760;2022-12-18T19:44:31;1.60;89.30
69082;DHT22;56184;51.986;5.760;2022-12-18T19:47:02;1.60;89.30
69082;DHT22;56184;51.986;5.760;2022-12-18T19:50:01;1.60;88.70
69082;DHT22;56184;51.986;5.760;2022-12-18T19:52:52;1.60;89.60
69082;DHT22;56184;51.986;5.760;2022-12-18T19:55:28;1.60;89.50
69082;DHT22;56184;51.986;5.760;2022-12-18T19:57:56;1.60;89.30
69082;DHT22;56184;51.986;5.760;2022-12-18T20:00:37;1.60;90.00
69082;DHT22;56184;51.986;5.760;2022-12-18T20:03:18;1.60;89.90
69082;DHT22;56184;51.986;5.760;2022-12-18T20:06:25;1.70;89.50
69082;DHT22;56184;51.986;5.760;2022-12-18T20:08:53;1.70;90.00
69082;DHT22;56184;51.986;5.760;2022-12-18T20:11:48;1.70;90.50
69082;DHT22;56184;51.986;5.760;2022-12-18T20:14:33;1.70;90.70
69082;DHT22;56184;51.986;5.760;2022-12-18T20:17:06;1.80;91.00
69082;DHT22;56184;51.986;5.760;2022-12-18T20:19:43;1.80;91.30